Time;durP1;ratioP1;P1;durP2;ratioP2;P2;SDS_P1;SDS_P2;PMS_P1;PMS_P2;Temp;Humidity;BMP_temperature;BMP_pressure;BME280_temperature;BME280_humidity;BME280_pressure;Samples;Min_cycle;Max_cycle;Signal;HPM_P1;HPM_P2
2022/04/25 00:01:09;;;;;;;6.57;5.55;;;9.30;37.40;;;;;;4968074;28;34088;-77
2022/04/25 00:03:35;;;;;;;7.07;5.53;;;9.20;37.40;;;;;;4951896;28;34154;-77
2022/04/25 00:06:01;;;;;;;7.72;5.35;;;9.20;37.40;;;;;;4967618;28;34158;-77
2022/04/25 00:08:27;;;;;;;8.07;5.60;;;9.10;37.30;;;;;;4985462;28;34353;-77
2022/04/25 00:10:53;;;;;;;7.47;5.10;;;9.10;37.40;;;;;;4984403;28;34129;-77
2022/04/25 00:13:18;;;;;;;6.32;5.63;;;9.10;37.40;;;;;;4984231;28;34261;-77
2022/04/25 00:15:44;;;;;;;7.25;5.05;;;9.00;37.30;;;;;;4984102;28;34320;-77
2022/04/25 00:18:10;;;;;;;7.22;4.95;;;9.00;37.30;;;;;;4983546;28;35801;-77
2022/04/25 00:20:36;;;;;;;6.22;5.15;;;8.90;37.40;;;;;;4985200;28;34162;-77
2022/04/25 00:23:05;;;;;;;7.55;5.05;;;8.80;37.60;;;;;;4983439;28;34547;-77
2022/04/25 00:25:33;;;;;;;6.07;5.15;;;8.70;37.60;;;;;;4984955;28;34054;-77
2022/04/25 00:28:00;;;;;;;7.07;5.70;;;8.60;37.80;;;;;;4967575;28;34137;-77
2022/04/25 00:30:28;;;;;;;6.72;5.30;;;8.60;37.80;;;;;;4984818;28;34042;-77
2022/04/25 00:32:55;;;;;;;7.00;5.38;;;8.50;37.80;;;;;;4984464;28;34230;-77
2022/04/25 00:35:21;;;;;;;6.75;5.63;;;8.50;37.80;;;;;;4984625;28;34178;-77
2022/04/25 00:37:47;;;;;;;6.93;5.35;;;8.40;37.80;;;;;;4983244;28;36906;-77
2022/04/25 00:40:14;;;;;;;5.60;4.50;;;8.40;37.80;;;;;;4967611;28;34150;-77
2022/04/25 00:42:40;;;;;;;6.38;5.20;;;8.30;37.80;;;;;;4984459;28;34281;-77
2022/04/25 00:45:06;;;;;;;7.00;5.55;;;8.20;37.80;;;;;;4967103;28;34256;-77
2022/04/25 00:47:32;;;;;;;9.73;5.78;;;8.20;37.90;;;;;;4963959;28;35923;-77
2022/04/25 00:49:58;;;;;;;7.00;5.82;;;8.20;37.90;;;;;;4965440;28;34212;-77
2022/04/25 00:52:24;;;;;;;7.88;6.10;;;8.20;38.00;;;;;;4983194;28;34194;-77
2022/04/25 00:54:50;;;;;;;7.85;6.07;;;8.20;38.00;;;;;;4983291;28;34086;-77
2022/04/25 00:57:16;;;;;;;7.75;6.45;;;8.20;38.00;;;;;;4982938;28;35847;-77
2022/04/25 00:59:44;;;;;;;6.47;5.60;;;8.20;38.00;;;;;;4983712;28;34161;-77
2022/04/25 01:02:10;;;;;;;7.32;5.78;;;8.20;38.10;;;;;;4966773;28;34262;-77
2022/04/25 01:04:36;;;;;;;7.28;5.75;;;8.20;38.10;;;;;;4967594;28;34128;-77
2022/04/25 01:07:02;;;;;;;7.57;6.10;;;8.20;38.00;;;;;;4983028;28;35876;-77
2022/04/25 01:09:28;;;;;;;8.13;6.15;;;8.30;38.10;;;;;;4967553;28;34066;-77
2022/04/25 01:11:54;;;;;;;8.07;6.28;;;8.30;38.10;;;;;;4983651;28;34092;-76
2022/04/25 01:14:21;;;;;;;7.32;6.25;;;8.40;38.10;;;;;;4967019;28;34015;-77
2022/04/25 01:16:48;;;;;;;8.70;6.43;;;8.40;38.10;;;;;;4966719;28;36638;-77
2022/04/25 01:19:14;;;;;;;8.80;6.55;;;8.40;38.00;;;;;;4983251;28;34094;-77
2022/04/25 01:21:50;;;;;;;7.90;6.10;;;8.40;38.00;;;;;;4984527;28;34139;-77
2022/04/25 01:29:39;;;;;;;6.75;5.90;;;8.30;38.00;;;;;;4970806;28;34225;-77
2022/04/25 01:32:06;;;;;;;7.63;6.32;;;8.30;38.10;;;;;;4963191;28;34036;-77
2022/04/25 01:34:33;;;;;;;8.65;6.07;;;8.30;38.10;;;;;;4948898;28;34580;-77
2022/04/25 01:37:01;;;;;;;7.47;5.70;;;8.20;38.10;;;;;;4950957;28;34402;-77
2022/04/25 01:39:27;;;;;;;6.75;5.40;;;8.20;38.10;;;;;;4968915;28;34108;-77
2022/04/25 01:41:54;;;;;;;7.53;5.55;;;8.20;38.10;;;;;;4970343;28;34450;-77
2022/04/25 01:44:19;;;;;;;7.35;5.85;;;8.20;38.30;;;;;;4970193;28;34088;-77
2022/04/25 01:46:45;;;;;;;7.05;5.38;;;8.10;38.40;;;;;;4986032;28;35797;-77
2022/04/25 01:49:11;;;;;;;6.63;5.28;;;8.10;38.40;;;;;;4965140;28;34171;-77
2022/04/25 01:51:40;;;;;;;7.28;5.80;;;8.00;38.30;;;;;;4966791;28;34242;-77
2022/04/25 01:54:06;;;;;;;6.72;5.95;;;7.90;38.40;;;;;;4982724;28;34078;-77
2022/04/25 01:56:32;;;;;;;6.93;5.43;;;7.80;38.30;;;;;;4969865;28;35907;-77
2022/04/25 01:58:58;;;;;;;6.22;5.25;;;7.80;38.30;;;;;;4985718;28;34138;-77
2022/04/25 02:01:24;;;;;;;7.00;5.25;;;7.70;38.50;;;;;;4970069;28;34148;-77
2022/04/25 02:03:50;;;;;;;7.85;5.53;;;7.70;38.50;;;;;;4985420;28;34449;-77
2022/04/25 02:06:15;;;;;;;6.63;5.70;;;7.60;38.40;;;;;;4985388;28;35634;-77
2022/04/25 02:08:42;;;;;;;7.32;5.57;;;7.60;38.40;;;;;;4979936;28;34309;-77
2022/04/25 02:13:51;;;;;;;6.45;5.20;;;7.50;38.40;;;;;;4966029;28;33858;-77
2022/04/25 02:16:21;;;;;;;5.80;5.05;;;7.40;38.30;;;;;;4966186;28;35828;-77
2022/04/25 02:18:48;;;;;;;5.47;4.93;;;7.40;38.40;;;;;;4982610;28;34305;-77
2022/04/25 02:21:13;;;;;;;5.50;4.90;;;7.30;38.30;;;;;;4967699;28;34028;-77
2022/04/25 02:23:41;;;;;;;8.23;4.70;;;7.20;38.40;;;;;;4965975;28;34062;-77
2022/04/25 02:26:08;;;;;;;5.63;4.95;;;7.20;38.40;;;;;;4969570;28;34330;-77
2022/04/25 02:28:34;;;;;;;5.60;4.63;;;7.00;38.50;;;;;;4969574;28;34281;-77
2022/04/25 02:31:04;;;;;;;6.40;5.30;;;7.00;38.60;;;;;;4967064;28;36011;-77
2022/04/25 02:33:31;;;;;;;6.35;5.53;;;6.90;38.70;;;;;;4950346;28;34704;-77
2022/04/25 02:35:57;;;;;;;7.28;5.53;;;7.00;38.70;;;;;;4965870;28;36104;-77
2022/04/25 02:38:22;;;;;;;7.18;4.90;;;7.00;38.80;;;;;;4966371;28;34118;-77
2022/04/25 02:41:04;;;;;;;6.63;5.47;;;6.90;38.80;;;;;;4966160;28;34358;-77
2022/04/25 02:43:35;;;;;;;9.85;5.95;;;6.90;38.80;;;;;;4949859;28;34277;-77
2022/04/25 02:46:02;;;;;;;5.47;4.88;;;6.90;39.20;;;;;;4968383;28;34555;-77
2022/04/25 02:48:29;;;;;;;6.38;5.03;;;6.80;39.00;;;;;;4985319;28;34127;-77
2022/04/25 02:50:55;;;;;;;7.07;5.63;;;6.80;38.90;;;;;;4986237;28;34074;-77
2022/04/25 02:53:24;;;;;;;6.55;5.57;;;6.80;38.90;;;;;;4985198;28;34320;-77
2022/04/25 02:55:51;;;;;;;7.32;5.97;;;6.70;39.20;;;;;;4985024;28;35787;-77
2022/04/25 02:58:18;;;;;;;7.13;5.50;;;6.70;39.40;;;;;;4970207;28;34634;-78
2022/04/25 03:00:46;;;;;;;8.65;6.10;;;6.70;39.70;;;;;;4986460;28;34346;-77
2022/04/25 03:03:14;;;;;;;9.57;6.55;;;6.80;40.10;;;;;;4969199;28;34444;-77
2022/04/25 03:05:43;;;;;;;7.50;6.70;;;6.80;40.30;;;;;;4984914;28;35482;-77
2022/04/25 03:08:12;;;;;;;8.85;7.07;;;6.90;40.40;;;;;;4968792;28;34087;-77
2022/04/25 03:10:39;;;;;;;8.35;6.65;;;7.00;40.50;;;;;;4974889;28;34075;-77
2022/04/25 03:13:07;;;;;;;7.65;6.47;;;7.10;40.50;;;;;;4968402;28;34309;-77
2022/04/25 03:15:34;;;;;;;9.65;6.90;;;7.20;40.30;;;;;;4985092;28;35829;-77
2022/04/25 03:18:01;;;;;;;9.85;7.53;;;7.30;40.40;;;;;;4985753;28;34454;-77
2022/04/25 03:20:28;;;;;;;7.13;6.30;;;7.30;40.50;;;;;;4968658;28;34195;-77
2022/04/25 03:22:55;;;;;;;8.90;6.63;;;7.50;40.70;;;;;;4969713;28;34220;-77
2022/04/25 03:25:21;;;;;;;8.68;6.80;;;7.50;40.60;;;;;;4966011;28;35160;-77
2022/04/25 03:27:47;;;;;;;8.48;6.60;;;7.50;40.50;;;;;;4949063;28;34182;-77
2022/04/25 03:30:13;;;;;;;9.10;7.07;;;7.60;40.70;;;;;;4968141;28;34314;-77
2022/04/25 03:32:45;;;;;;;10.13;7.07;;;7.60;40.60;;;;;;4977848;28;34011;-77
2022/04/25 03:35:12;;;;;;;8.30;6.78;;;7.70;41.30;;;;;;4984204;28;36021;-78
2022/04/25 03:37:38;;;;;;;9.90;7.05;;;7.70;40.60;;;;;;4984409;28;34209;-77
2022/04/25 03:40:05;;;;;;;8.75;7.65;;;7.80;40.50;;;;;;4985753;28;34407;-77
2022/04/25 03:42:31;;;;;;;8.32;6.95;;;7.80;40.40;;;;;;4985409;28;34064;-77
2022/04/25 03:44:57;;;;;;;10.55;7.40;;;7.90;40.40;;;;;;4984234;28;35796;-77
2022/04/25 03:47:23;;;;;;;9.00;7.25;;;7.90;40.20;;;;;;4984514;28;34044;-77
2022/04/25 03:49:49;;;;;;;8.55;6.93;;;8.00;40.30;;;;;;4968106;28;34299;-77
2022/04/25 03:52:15;;;;;;;9.60;7.30;;;8.00;40.10;;;;;;4984301;28;34200;-77
2022/04/25 03:57:22;;;;;;;8.93;7.30;;;8.10;40.50;;;;;;4954516;28;34087;-77
2022/04/25 03:59:48;;;;;;;11.65;7.38;;;8.20;40.50;;;;;;4985459;28;34113;-77
2022/04/25 04:02:14;;;;;;;11.50;7.03;;;8.20;40.40;;;;;;4951819;28;34162;-77
2022/04/25 04:04:40;;;;;;;10.50;7.25;;;8.20;40.40;;;;;;4984900;28;34295;-77
2022/04/25 04:07:06;;;;;;;9.25;7.35;;;8.30;40.40;;;;;;4983974;28;34225;-77
2022/04/25 04:12:18;;;;;;;8.32;6.82;;;8.30;40.30;;;;;;4968732;28;34322;-77
2022/04/25 04:14:44;;;;;;;9.60;7.53;;;8.40;40.70;;;;;;4967362;28;36547;-77
2022/04/25 04:17:11;;;;;;;10.95;7.47;;;8.40;40.20;;;;;;4983778;28;34059;-77
2022/04/25 04:19:38;;;;;;;8.20;6.97;;;8.40;40.10;;;;;;4983687;28;36011;-77
2022/04/25 04:22:05;;;;;;;10.00;7.30;;;8.40;40.20;;;;;;4984098;28;34031;-77
2022/04/25 04:24:32;;;;;;;9.30;7.50;;;8.40;40.10;;;;;;4967596;28;35633;-77
2022/04/25 04:27:01;;;;;;;9.52;7.28;;;8.40;40.10;;;;;;4983557;28;34572;-77
2022/04/25 04:29:29;;;;;;;8.45;7.18;;;8.50;40.10;;;;;;4984168;28;34242;-77
2022/04/25 04:31:58;;;;;;;8.73;6.45;;;8.50;40.10;;;;;;4967204;28;34106;-78
2022/04/25 04:34:25;;;;;;;10.48;7.13;;;8.50;40.30;;;;;;4984690;28;34167;-77
2022/04/25 04:36:51;;;;;;;10.10;6.80;;;8.40;40.20;;;;;;4984654;28;34074;-77
2022/04/25 04:39:18;;;;;;;10.13;7.03;;;8.40;40.20;;;;;;4983810;28;34138;-77
2022/04/25 04:41:44;;;;;;;8.55;6.68;;;8.40;40.20;;;;;;4984922;28;34697;-77
2022/04/25 04:44:11;;;;;;;8.52;6.50;;;8.40;40.10;;;;;;4984274;28;35002;-77
2022/04/25 04:46:37;;;;;;;8.57;6.65;;;8.30;40.40;;;;;;4984655;28;34201;-77
2022/04/25 04:49:03;;;;;;;8.63;6.88;;;8.30;40.40;;;;;;4984747;28;34139;-78
2022/04/25 04:51:29;;;;;;;8.05;6.28;;;8.40;40.40;;;;;;4984762;28;34067;-77
2022/04/25 04:53:59;;;;;;;9.40;7.40;;;8.40;40.50;;;;;;4957237;28;35974;-77
2022/04/25 04:56:26;;;;;;;9.40;7.32;;;8.40;40.50;;;;;;4964978;28;34198;-77
2022/04/25 04:58:53;;;;;;;8.30;7.07;;;8.40;40.50;;;;;;4963814;28;34181;-77
2022/04/25 05:01:19;;;;;;;7.85;7.00;;;8.40;40.40;;;;;;4977686;28;34363;-77
2022/04/25 05:03:45;;;;;;;9.50;7.07;;;8.40;40.50;;;;;;4964577;28;35648;-77
2022/04/25 05:06:12;;;;;;;10.07;7.03;;;8.40;40.50;;;;;;4982896;28;34052;-77
2022/04/25 05:08:38;;;;;;;8.85;7.10;;;8.50;40.60;;;;;;4950279;28;34216;-77
2022/04/25 05:11:05;;;;;;;8.15;6.63;;;8.50;40.70;;;;;;4974170;28;34051;-77
2022/04/25 05:13:31;;;;;;;10.82;8.05;;;8.60;40.90;;;;;;4963095;28;36739;-77
2022/04/25 05:15:58;;;;;;;9.13;7.55;;;8.60;41.20;;;;;;4963500;28;34115;-77
2022/04/25 05:18:24;;;;;;;11.32;8.30;;;8.70;41.40;;;;;;4947761;28;34404;-77
2022/04/25 05:20:51;;;;;;;10.82;7.80;;;8.80;41.10;;;;;;4946625;28;34403;-77
2022/04/25 05:23:17;;;;;;;9.35;7.20;;;8.90;41.30;;;;;;4962890;28;36668;-76
2022/04/25 05:25:43;;;;;;;11.75;7.95;;;9.00;41.00;;;;;;4963640;28;34123;-77
2022/04/25 05:28:09;;;;;;;11.13;8.13;;;9.10;40.80;;;;;;4963491;28;34189;-76
2022/04/25 05:30:35;;;;;;;11.95;8.35;;;9.20;40.70;;;;;;4947912;28;34111;-77
2022/04/25 05:33:03;;;;;;;9.55;7.47;;;9.20;40.50;;;;;;4947037;28;35806;-77
2022/04/25 05:35:33;;;;;;;10.23;7.97;;;9.30;40.60;;;;;;4963437;28;34216;-77
2022/04/25 05:38:00;;;;;;;10.63;8.10;;;9.40;41.10;;;;;;4963220;28;34463;-77
2022/04/25 05:40:49;;;;;;;15.95;8.57;;;9.40;40.70;;;;;;4947674;28;34208;-77
2022/04/25 05:43:15;;;;;;;11.82;8.20;;;9.40;43.40;;;;;;4947247;28;36509;-77
2022/04/25 05:45:45;;;;;;;10.43;8.30;;;9.40;40.60;;;;;;4947181;28;34455;-77
2022/04/25 05:53:35;;;;;;;13.88;8.25;;;9.40;40.40;;;;;;4944652;28;34135;-77
2022/04/25 05:56:01;;;;;;;12.63;8.07;;;9.50;40.40;;;;;;4956313;28;34252;-77
2022/04/25 05:58:26;;;;;;;9.75;7.82;;;9.50;40.50;;;;;;4947038;28;34126;-77
2022/04/25 06:00:52;;;;;;;9.98;7.57;;;9.50;40.50;;;;;;4943361;28;34092;-78
2022/04/25 06:03:18;;;;;;;9.23;7.35;;;9.60;40.20;;;;;;4944111;28;35937;-78
2022/04/25 06:05:45;;;;;;;9.77;7.97;;;9.60;40.50;;;;;;4970836;28;34178;-79
2022/04/25 06:08:11;;;;;;;10.77;8.48;;;9.60;40.60;;;;;;4965097;28;34281;-79
2022/04/25 06:10:39;;;;;;;12.32;8.05;;;9.60;40.60;;;;;;4931778;28;34218;-78
2022/04/25 06:13:06;;;;;;;8.73;7.80;;;9.60;40.90;;;;;;4961651;28;36856;-77
2022/04/25 06:15:36;;;;;;;9.52;7.63;;;9.60;40.60;;;;;;4965867;28;34087;-77
2022/04/25 06:18:02;;;;;;;10.48;7.70;;;9.70;40.80;;;;;;4981983;28;34298;-77
2022/04/25 06:20:30;;;;;;;14.82;8.27;;;9.80;40.70;;;;;;4984719;28;34186;-77
2022/04/25 06:22:59;;;;;;;11.27;8.40;;;9.90;40.70;;;;;;4953491;28;35970;-77
2022/04/25 06:25:26;;;;;;;11.40;8.38;;;10.00;40.40;;;;;;4969975;28;34285;-77
2022/04/25 06:27:52;;;;;;;11.73;8.45;;;10.20;39.90;;;;;;4968643;28;34217;-77
2022/04/25 06:30:23;;;;;;;13.18;9.20;;;10.50;39.80;;;;;;4985413;28;34135;-77
2022/04/25 06:32:50;;;;;;;10.63;8.63;;;10.90;39.50;;;;;;4984890;28;36755;-77
2022/04/25 06:35:16;;;;;;;12.13;8.45;;;11.40;38.30;;;;;;4986357;28;34770;-77
2022/04/25 06:37:42;;;;;;;10.68;8.63;;;12.00;37.60;;;;;;4969048;28;34257;-77
2022/04/25 06:40:09;;;;;;;12.43;7.70;;;12.70;36.30;;;;;;4969565;28;34251;-78
2022/04/25 06:42:34;;;;;;;8.63;6.95;;;13.50;34.50;;;;;;4985740;28;35942;-78
2022/04/25 06:45:01;;;;;;;9.35;7.45;;;14.10;32.30;;;;;;4985579;28;34474;-78
2022/04/25 06:47:26;;;;;;;9.90;7.63;;;14.80;30.90;;;;;;4970817;28;34376;-78
2022/04/25 06:49:54;;;;;;;8.65;7.40;;;15.30;29.90;;;;;;4980658;28;34490;-78
2022/04/25 06:52:21;;;;;;;9.43;6.93;;;15.70;28.20;;;;;;4985052;28;35614;-79
2022/04/25 06:54:47;;;;;;;8.25;7.28;;;16.20;27.50;;;;;;4978909;28;34277;-78
2022/04/25 06:57:13;;;;;;;7.22;6.05;;;16.50;26.40;;;;;;4982530;28;34395;-78
2022/04/25 06:59:39;;;;;;;9.50;7.00;;;16.80;25.80;;;;;;4986676;28;34277;-78
2022/04/25 07:02:05;;;;;;;9.10;6.93;;;17.10;25.00;;;;;;4969941;28;34396;-78
2022/04/25 07:04:31;;;;;;;11.77;6.97;;;17.20;24.30;;;;;;4958349;28;34128;-78
2022/04/25 07:07:00;;;;;;;11.07;7.20;;;17.50;24.40;;;;;;4972049;28;34015;-78
2022/04/25 07:09:26;;;;;;;8.90;7.13;;;17.70;24.00;;;;;;4956767;28;34236;-78
2022/04/25 07:11:51;;;;;;;8.82;7.72;;;17.80;23.60;;;;;;5005688;28;35339;-78
2022/04/25 07:14:19;;;;;;;9.90;7.75;;;17.90;23.20;;;;;;4970020;28;34132;-78
2022/04/25 07:16:48;;;;;;;9.93;7.80;;;18.10;23.10;;;;;;4969243;28;34460;-78
2022/04/25 07:19:16;;;;;;;10.38;7.78;;;18.20;22.80;;;;;;4986374;28;34332;-78
2022/04/25 07:29:48;;;;;;;10.65;7.90;;;18.20;23.40;;;;;;4969489;28;34103;-78
2022/04/25 07:32:15;;;;;;;8.82;7.60;;;18.20;23.20;;;;;;4968735;28;36220;-78
2022/04/25 07:34:43;;;;;;;10.23;7.97;;;18.10;23.60;;;;;;4986149;28;34254;-78
2022/04/25 07:37:10;;;;;;;8.70;7.57;;;18.00;23.00;;;;;;4968562;28;34106;-78
2022/04/25 07:39:36;;;;;;;10.90;7.65;;;18.00;23.20;;;;;;4968428;28;34143;-78
2022/04/25 07:42:02;;;;;;;8.45;6.90;;;17.80;23.40;;;;;;4984049;28;35969;-78
2022/04/25 07:44:28;;;;;;;9.40;7.18;;;17.80;23.50;;;;;;4969655;28;34308;-77
2022/04/25 07:46:54;;;;;;;9.50;6.93;;;17.90;23.80;;;;;;4968984;28;34116;-77
2022/04/25 07:49:19;;;;;;;8.38;7.00;;;17.80;23.70;;;;;;4984443;28;34423;-77
2022/04/25 07:51:47;;;;;;;9.13;6.63;;;17.70;23.80;;;;;;4952983;28;35746;-78
2022/04/25 07:54:15;;;;;;;6.95;6.25;;;17.60;23.80;;;;;;4985262;28;34150;-77
2022/04/25 07:56:42;;;;;;;6.95;6.25;;;17.80;23.80;;;;;;4969662;28;34430;-78
2022/04/25 07:59:09;;;;;;;7.30;6.30;;;17.90;23.50;;;;;;4984961;28;34564;-77
2022/04/25 08:01:35;;;;;;;7.88;6.25;;;17.70;23.70;;;;;;4987181;28;34392;-78
2022/04/25 08:04:01;;;;;;;8.68;6.72;;;17.70;23.40;;;;;;4985711;28;34409;-77
2022/04/25 08:06:27;;;;;;;6.35;5.75;;;17.70;23.50;;;;;;4986051;28;34228;-78
2022/04/25 08:08:54;;;;;;;7.78;5.93;;;17.70;23.60;;;;;;4967884;28;34677;-77
2022/04/25 08:11:21;;;;;;;7.03;6.25;;;17.80;23.00;;;;;;4980257;28;35168;-79
2022/04/25 08:19:10;;;;;;;6.45;5.85;;;18.20;22.10;;;;;;4983797;28;33896;-78
2022/04/25 08:21:38;;;;;;;7.00;5.63;;;18.30;22.20;;;;;;4986148;28;35869;-79
2022/04/25 08:24:04;;;;;;;6.50;5.72;;;18.40;21.60;;;;;;4969289;28;34134;-79
2022/04/25 08:26:30;;;;;;;7.50;6.10;;;18.40;21.50;;;;;;4968774;28;34115;-78
2022/04/25 08:28:56;;;;;;;8.10;6.55;;;18.10;21.40;;;;;;4985171;28;34110;-80
2022/04/25 08:31:22;;;;;;;6.95;6.00;;;17.90;21.50;;;;;;4966206;28;35912;-78
2022/04/25 08:33:48;;;;;;;7.90;6.32;;;18.10;21.40;;;;;;4967430;28;34221;-81
2022/04/25 08:36:16;;;;;;;6.90;6.20;;;18.30;21.30;;;;;;4975514;28;34122;-78
2022/04/25 08:38:43;;;;;;;6.15;5.45;;;18.60;20.60;;;;;;4966865;28;34076;-79
2022/04/25 08:41:12;;;;;;;6.15;5.40;;;19.00;20.60;;;;;;4980055;28;36035;-79
2022/04/25 08:43:40;;;;;;;6.47;5.55;;;19.30;19.60;;;;;;4949519;28;34118;-78
2022/04/25 08:46:08;;;;;;;6.50;5.70;;;19.20;19.50;;;;;;4973480;28;34236;-79
2022/04/25 08:48:34;;;;;;;6.47;5.80;;;19.20;19.20;;;;;;4954533;28;34211;-81
2022/04/25 08:51:00;;;;;;;6.35;5.53;;;19.40;19.40;;;;;;4968424;28;36365;-79
2022/04/25 08:53:27;;;;;;;6.55;5.78;;;19.60;19.10;;;;;;4970259;28;34241;-80
2022/04/25 08:55:54;;;;;;;6.80;5.57;;;19.90;17.40;;;;;;4987049;28;34217;-79
2022/04/25 08:58:23;;;;;;;6.00;5.30;;;20.10;18.60;;;;;;4985438;28;34130;-79
2022/04/25 09:00:49;;;;;;;5.80;5.05;;;20.10;17.80;;;;;;4969264;28;35746;-80
2022/04/25 09:03:15;;;;;;;5.40;4.85;;;20.20;18.10;;;;;;4967311;28;34088;-79
2022/04/25 09:05:42;;;;;;;5.00;4.47;;;20.40;17.80;;;;;;4949805;28;34366;-78
2022/04/25 09:08:08;;;;;;;5.13;4.60;;;20.50;16.80;;;;;;4933836;28;34523;-79
2022/04/25 09:10:35;;;;;;;6.15;5.55;;;20.50;17.00;;;;;;4951094;28;35695;-79
2022/04/25 09:13:01;;;;;;;6.35;5.50;;;20.60;16.90;;;;;;4933215;28;34433;-78
2022/04/25 09:15:27;;;;;;;5.65;4.60;;;20.60;16.80;;;;;;4952549;28;34061;-80
2022/04/25 09:17:55;;;;;;;6.28;4.78;;;20.70;16.50;;;;;;4985340;28;34324;-79
2022/04/25 09:20:21;;;;;;;7.40;5.20;;;20.80;15.70;;;;;;4979305;28;34128;-79
2022/04/25 09:22:48;;;;;;;8.15;5.20;;;20.80;15.90;;;;;;4968127;28;34151;-80
2022/04/25 09:25:16;;;;;;;6.85;5.13;;;20.90;15.80;;;;;;4986832;28;34178;-79
2022/04/25 09:27:43;;;;;;;5.03;4.55;;;21.00;14.70;;;;;;4987681;28;34078;-78
2022/04/25 09:30:21;;;;;;;5.22;4.45;;;21.00;15.30;;;;;;4972529;28;35601;-81
2022/04/25 09:32:51;;;;;;;5.00;4.50;;;21.10;13.10;;;;;;4982222;28;34191;-78
2022/04/25 09:35:33;;;;;;;5.07;4.57;;;21.20;13.30;;;;;;4959176;28;34019;-79
2022/04/25 09:38:03;;;;;;;5.00;4.50;;;21.10;8.40;;;;;;4951174;28;34397;-79
2022/04/25 09:40:32;;;;;;;5.10;4.60;;;21.20;13.70;;;;;;4961647;28;36610;-79
2022/04/25 09:43:10;;;;;;;5.38;4.78;;;21.30;14.10;;;;;;4968508;28;34957;-78
2022/04/25 09:45:41;;;;;;;6.45;4.65;;;21.30;9.10;;;;;;4968995;28;34189;-78
2022/04/25 09:48:16;;;;;;;7.90;4.75;;;21.40;13.40;;;;;;4969485;28;34191;-76
2022/04/25 09:50:45;;;;;;;4.82;4.32;;;21.40;9.50;;;;;;4967631;28;36043;-79
2022/04/25 09:53:11;;;;;;;4.60;4.15;;;21.10;13.10;;;;;;4969848;28;34435;-79
2022/04/25 09:55:39;;;;;;;4.55;4.10;;;21.20;13.20;;;;;;4970451;28;34073;-80
2022/04/25 09:58:17;;;;;;;5.43;4.20;;;21.50;12.90;;;;;;4956318;28;34079;-77
2022/04/25 10:00:43;;;;;;;4.20;3.80;;;21.80;7.80;;;;;;4984227;28;35611;-77
2022/04/25 10:03:10;;;;;;;4.20;3.80;;;21.70;12.40;;;;;;4988004;28;34197;-78
2022/04/25 10:05:40;;;;;;;5.07;3.65;;;21.80;12.00;;;;;;4971630;28;34202;-79
2022/04/25 10:08:09;;;;;;;4.00;3.60;;;21.90;10.40;;;;;;4987729;28;34261;-80
2022/04/25 10:10:44;;;;;;;4.53;3.90;;;22.00;10.30;;;;;;4971948;28;36553;-78
2022/04/25 10:13:11;;;;;;;4.50;3.70;;;22.00;9.00;;;;;;4971285;28;34286;-79
2022/04/25 10:15:39;;;;;;;3.92;3.53;;;22.00;11.00;;;;;;4973068;28;34546;-82
2022/04/25 10:18:06;;;;;;;3.70;3.20;;;22.10;10.90;;;;;;4986339;28;34140;-82
2022/04/25 10:20:36;;;;;;;3.85;3.38;;;22.50;10.50;;;;;;4959759;28;36636;-79
2022/04/25 10:23:04;;;;;;;3.70;3.35;;;22.80;8.80;;;;;;4970756;28;34083;-78
2022/04/25 10:25:31;;;;;;;4.07;2.88;;;22.60;9.50;;;;;;4975618;28;34012;-79
2022/04/25 10:27:59;;;;;;;4.93;3.53;;;22.50;10.00;;;;;;4989944;28;34411;-79
2022/04/25 10:30:33;;;;;;;5.03;3.42;;;22.10;9.40;;;;;;4988924;28;35825;-80
2022/04/25 10:33:16;;;;;;;3.28;2.97;;;21.90;8.00;;;;;;4988818;28;34189;-80
2022/04/25 10:35:44;;;;;;;7.43;3.20;;;21.80;3.50;;;;;;4988030;28;34118;-79
2022/04/25 10:44:49;;;;;;;3.33;3.03;;;21.20;6.30;;;;;;4959714;28;34156;-78
2022/04/25 10:47:17;;;;;;;3.30;3.00;;;21.00;6.10;;;;;;4964287;28;34378;-78
2022/04/25 10:49:47;;;;;;;3.53;3.22;;;20.70;10.50;;;;;;4971154;28;34183;-78
2022/04/25 10:55:34;;;;;;;3.28;2.97;;;20.10;7.00;;;;;;4987208;28;34048;-78
2022/04/25 10:58:12;;;;;;;3.60;3.22;;;20.10;8.60;;;;;;4955514;28;34023;-78
2022/04/25 11:00:48;;;;;;;3.47;3.17;;;20.00;8.80;;;;;;4978859;28;34243;-78
2022/04/25 11:03:16;;;;;;;4.93;3.25;;;19.90;9.10;;;;;;4988433;28;35978;-79
2022/04/25 11:05:44;;;;;;;3.80;3.40;;;19.80;11.00;;;;;;4972241;28;34484;-80
2022/04/25 11:08:26;;;;;;;4.22;3.63;;;19.80;10.90;;;;;;4989130;28;34293;-79
2022/04/25 11:11:12;;;;;;;7.35;3.33;;;19.80;8.40;;;;;;4988933;28;34179;-79
2022/04/25 11:14:10;;;;;;;3.97;3.00;;;19.80;8.30;;;;;;4968883;28;35805;-78
2022/04/25 11:16:38;;;;;;;3.40;3.10;;;19.60;6.00;;;;;;4951109;28;34200;-79
2022/04/25 11:19:09;;;;;;;7.68;3.22;;;19.40;10.70;;;;;;4953350;28;34427;-79
2022/04/25 11:21:41;;;;;;;3.60;3.20;;;19.30;10.60;;;;;;4955170;28;34478;-79
2022/04/25 11:24:26;;;;;;;3.42;3.00;;;19.40;10.80;;;;;;4988951;28;35786;-82
2022/04/25 11:26:54;;;;;;;3.42;3.13;;;19.50;8.50;;;;;;4967502;28;34396;-79
2022/04/25 11:29:20;;;;;;;4.00;2.75;;;19.50;10.40;;;;;;4970611;28;34099;-78
2022/04/25 11:31:46;;;;;;;3.35;3.05;;;19.50;10.60;;;;;;4985928;28;34459;-78
2022/04/25 11:34:13;;;;;;;3.67;3.28;;;19.40;10.40;;;;;;4968522;28;35597;-78
2022/04/25 11:36:43;;;;;;;2.97;2.78;;;19.40;10.30;;;;;;4966642;28;34165;-78
2022/04/25 11:41:54;;;;;;;3.47;3.08;;;19.40;9.60;;;;;;4988585;28;34043;-79
2022/04/25 11:44:20;;;;;;;4.05;3.65;;;19.50;10.00;;;;;;4968961;28;34643;-77
2022/04/25 11:46:47;;;;;;;3.80;3.10;;;19.50;9.80;;;;;;4984579;28;34300;-77
2022/04/25 11:49:27;;;;;;;2.05;1.95;;;19.50;9.70;;;;;;4984683;28;34140;-78
2022/04/25 11:51:58;;;;;;;2.20;2.00;;;19.40;5.60;;;;;;4971112;28;34508;-79
2022/04/25 11:54:26;;;;;;;3.08;2.20;;;19.70;9.20;;;;;;4985200;28;35799;-80
2022/04/25 11:56:52;;;;;;;2.30;2.10;;;19.90;8.70;;;;;;4970844;28;34145;-79
2022/04/25 11:59:19;;;;;;;2.20;2.00;;;19.90;8.90;;;;;;4986825;28;34130;-78
2022/04/25 12:01:49;;;;;;;2.40;2.20;;;20.10;8.60;;;;;;4968769;28;33969;-79
2022/04/25 12:04:24;;;;;;;2.20;2.00;;;20.30;7.10;;;;;;4968197;28;36529;-79
2022/04/25 12:07:04;;;;;;;3.45;2.40;;;20.50;8.00;;;;;;4969003;28;34198;-81
2022/04/25 12:17:49;;;;;;;2.70;2.40;;;20.20;8.10;;;;;;4979903;28;34098;-78
2022/04/25 12:20:17;;;;;;;2.33;2.10;;;20.00;7.90;;;;;;4952978;28;34159;-78
2022/04/25 12:22:53;;;;;;;2.25;2.05;;;19.70;8.20;;;;;;4970966;28;34071;-79
2022/04/25 12:25:23;;;;;;;2.30;2.10;;;19.50;7.50;;;;;;4985776;28;36600;-77
2022/04/25 12:28:19;;;;;;;2.45;2.17;;;19.40;8.50;;;;;;4984998;28;34368;-78
2022/04/25 12:30:49;;;;;;;2.95;2.03;;;19.20;7.10;;;;;;4989362;28;34305;-78
2022/04/25 12:33:17;;;;;;;3.13;2.38;;;19.00;9.60;;;;;;4970377;28;34220;-78
2022/04/25 12:35:45;;;;;;;2.55;2.17;;;18.90;10.00;;;;;;4950515;28;35545;-78
2022/04/25 12:38:40;;;;;;;3.35;2.03;;;18.70;10.10;;;;;;4966801;28;34204;-78
2022/04/25 12:41:08;;;;;;;3.15;2.33;;;18.60;10.00;;;;;;4943007;28;34065;-77
2022/04/25 12:43:44;;;;;;;2.65;2.10;;;18.50;10.80;;;;;;4988840;28;34080;-79
2022/04/25 12:46:12;;;;;;;2.53;2.10;;;18.40;10.70;;;;;;4986345;28;34331;-78
2022/04/25 12:48:54;;;;;;;2.30;2.10;;;18.30;10.30;;;;;;4969287;28;34344;-78
2022/04/25 12:51:29;;;;;;;2.97;2.33;;;18.30;10.80;;;;;;4966934;28;34105;-79
2022/04/25 12:53:55;;;;;;;2.47;2.28;;;18.20;8.60;;;;;;4935016;28;34073;-79
2022/04/25 12:56:24;;;;;;;4.03;2.60;;;18.20;10.40;;;;;;4961497;28;35775;-78
2022/04/25 12:58:50;;;;;;;2.40;2.05;;;18.30;10.70;;;;;;4987232;28;34082;-78
2022/04/25 13:01:33;;;;;;;3.47;2.53;;;18.30;10.60;;;;;;4987090;28;34466;-78
2022/04/25 13:04:19;;;;;;;2.55;2.17;;;18.30;8.00;;;;;;4984765;28;34570;-79
2022/04/25 13:06:45;;;;;;;2.42;2.22;;;18.30;7.40;;;;;;4951641;28;34311;-78
2022/04/25 13:09:12;;;;;;;2.65;2.28;;;18.30;10.20;;;;;;4967921;28;33644;-78
2022/04/25 13:11:38;;;;;;;3.08;2.40;;;18.30;10.10;;;;;;4980412;28;34262;-78
2022/04/25 13:14:05;;;;;;;3.10;2.00;;;18.30;10.10;;;;;;4985750;28;34102;-78
2022/04/25 13:16:32;;;;;;;2.63;2.20;;;18.40;9.90;;;;;;4986722;28;34454;-79
2022/04/25 13:18:58;;;;;;;2.00;1.80;;;18.40;9.80;;;;;;4987571;28;34191;-77
2022/04/25 13:21:25;;;;;;;2.20;2.00;;;18.40;9.80;;;;;;4969982;28;34388;-77
2022/04/25 13:23:51;;;;;;;2.30;2.10;;;18.60;9.90;;;;;;4986226;28;34526;-78
2022/04/25 13:26:18;;;;;;;2.10;1.90;;;18.60;9.50;;;;;;4983923;28;36068;-78
2022/04/25 13:28:44;;;;;;;3.40;2.22;;;18.70;9.30;;;;;;4971081;28;34240;-78
2022/04/25 13:31:11;;;;;;;2.70;2.25;;;18.80;9.10;;;;;;4990254;28;33663;-78
2022/04/25 13:33:37;;;;;;;2.30;2.10;;;18.80;8.90;;;;;;4990611;28;34133;-78
2022/04/25 13:36:05;;;;;;;2.65;2.30;;;18.90;8.80;;;;;;4989559;28;34173;-78
2022/04/25 13:38:32;;;;;;;2.58;2.17;;;18.90;8.40;;;;;;4990958;28;34265;-79
2022/04/25 13:41:00;;;;;;;2.88;2.20;;;18.90;8.50;;;;;;4974527;28;34144;-79
2022/04/25 13:43:26;;;;;;;2.85;2.10;;;19.00;8.40;;;;;;4991243;28;34106;-78
2022/04/25 13:45:54;;;;;;;2.42;1.60;;;18.90;8.40;;;;;;4975152;28;35511;-78
2022/04/25 13:48:24;;;;;;;2.40;2.20;;;19.00;8.60;;;;;;4970806;28;34449;-80
2022/04/25 13:50:51;;;;;;;4.53;1.90;;;19.00;8.50;;;;;;4974908;28;34291;-80